sensor_id;sensor_type;location;lat;lon;timestamp;P1;durP1;ratioP1;P2;durP2;ratioP2
41568;SDS011;27283;52.504;13.358;2023-04-09T00:01:32;62.70;;;28.55;;
41568;SDS011;27283;52.504;13.358;2023-04-09T00:04:06;61.20;;;29.63;;
41568;SDS011;27283;52.504;13.358;2023-04-09T00:06:41;62.10;;;30.08;;
41568;SDS011;27283;52.504;13.358;2023-04-09T00:09:14;60.72;;;29.27;;
41568;SDS011;27283;52.504;13.358;2023-04-09T00:11:48;65.10;;;30.27;;
41568;SDS011;27283;52.504;13.358;2023-04-09T00:14:21;63.08;;;28.92;;
41568;SDS011;27283;52.504;13.358;2023-04-09T00:16:53;66.63;;;30.20;;
41568;SDS011;27283;52.504;13.358;2023-04-09T00:19:25;66.18;;;30.02;;
41568;SDS011;27283;52.504;13.358;2023-04-09T00:22:00;68.63;;;31.27;;
41568;SDS011;27283;52.504;13.358;2023-04-09T00:24:33;65.47;;;29.65;;
41568;SDS011;27283;52.504;13.358;2023-04-09T00:27:04;68.45;;;31.73;;
41568;SDS011;27283;52.504;13.358;2023-04-09T00:29:37;71.10;;;30.80;;
41568;SDS011;27283;52.504;13.358;2023-04-09T00:32:08;68.40;;;30.73;;
41568;SDS011;27283;52.504;13.358;2023-04-09T00:34:41;67.68;;;30.63;;
41568;SDS011;27283;52.504;13.358;2023-04-09T00:37:15;66.25;;;30.52;;
41568;SDS011;27283;52.504;13.358;2023-04-09T00:39:48;70.50;;;31.58;;
41568;SDS011;27283;52.504;13.358;2023-04-09T00:42:20;67.93;;;30.20;;
41568;SDS011;27283;52.504;13.358;2023-04-09T00:44:52;67.28;;;31.30;;
41568;SDS011;27283;52.504;13.358;2023-04-09T00:47:24;68.57;;;31.67;;
41568;SDS011;27283;52.504;13.358;2023-04-09T00:49:58;66.32;;;30.70;;
41568;SDS011;27283;52.504;13.358;2023-04-09T00:52:34;64.45;;;30.17;;
41568;SDS011;27283;52.504;13.358;2023-04-09T00:55:07;70.85;;;30.85;;
41568;SDS011;27283;52.504;13.358;2023-04-09T00:57:40;68.65;;;31.25;;
41568;SDS011;27283;52.504;13.358;2023-04-09T01:00:13;63.28;;;29.80;;
41568;SDS011;27283;52.504;13.358;2023-04-09T01:03:23;64.88;;;30.83;;
41568;SDS011;27283;52.504;13.358;2023-04-09T01:05:58;65.85;;;30.48;;
41568;SDS011;27283;52.504;13.358;2023-04-09T01:08:45;74.60;;;31.80;;
41568;SDS011;27283;52.504;13.358;2023-04-09T01:11:25;72.15;;;31.25;;
41568;SDS011;27283;52.504;13.358;2023-04-09T01:14:07;70.72;;;32.35;;
41568;SDS011;27283;52.504;13.358;2023-04-09T01:17:08;75.35;;;32.53;;
41568;SDS011;27283;52.504;13.358;2023-04-09T01:19:48;71.70;;;32.45;;
41568;SDS011;27283;52.504;13.358;2023-04-09T01:22:31;69.22;;;32.13;;
41568;SDS011;27283;52.504;13.358;2023-04-09T01:25:22;69.05;;;31.30;;
41568;SDS011;27283;52.504;13.358;2023-04-09T01:28:15;69.60;;;31.95;;
41568;SDS011;27283;52.504;13.358;2023-04-09T01:30:49;66.95;;;31.52;;
41568;SDS011;27283;52.504;13.358;2023-04-09T01:33:24;71.22;;;31.83;;
41568;SDS011;27283;52.504;13.358;2023-04-09T01:35:57;71.95;;;32.55;;
41568;SDS011;27283;52.504;13.358;2023-04-09T01:38:32;73.28;;;32.88;;
41568;SDS011;27283;52.504;13.358;2023-04-09T01:41:06;70.85;;;32.72;;
41568;SDS011;27283;52.504;13.358;2023-04-09T01:43:45;81.32;;;34.60;;
41568;SDS011;27283;52.504;13.358;2023-04-09T01:46:19;73.65;;;33.47;;
41568;SDS011;27283;52.504;13.358;2023-04-09T01:48:53;72.07;;;32.97;;
41568;SDS011;27283;52.504;13.358;2023-04-09T01:51:26;78.72;;;34.05;;
41568;SDS011;27283;52.504;13.358;2023-04-09T01:53:59;70.07;;;32.30;;
41568;SDS011;27283;52.504;13.358;2023-04-09T01:56:39;77.15;;;33.42;;
41568;SDS011;27283;52.504;13.358;2023-04-09T01:59:15;74.53;;;33.08;;
41568;SDS011;27283;52.504;13.358;2023-04-09T02:01:48;74.80;;;32.33;;
41568;SDS011;27283;52.504;13.358;2023-04-09T02:04:27;78.05;;;34.08;;
41568;SDS011;27283;52.504;13.358;2023-04-09T02:07:05;81.70;;;34.47;;
41568;SDS011;27283;52.504;13.358;2023-04-09T02:09:41;74.35;;;34.28;;
41568;SDS011;27283;52.504;13.358;2023-04-09T02:55:26;85.57;;;36.05;;
41568;SDS011;27283;52.504;13.358;2023-04-09T02:57:59;83.63;;;35.35;;
41568;SDS011;27283;52.504;13.358;2023-04-09T03:00:32;84.65;;;35.17;;
41568;SDS011;27283;52.504;13.358;2023-04-09T03:03:04;88.65;;;36.30;;
41568;SDS011;27283;52.504;13.358;2023-04-09T03:05:38;92.28;;;37.88;;
41568;SDS011;27283;52.504;13.358;2023-04-09T03:08:10;89.95;;;37.00;;
41568;SDS011;27283;52.504;13.358;2023-04-09T03:10:48;87.97;;;37.42;;
41568;SDS011;27283;52.504;13.358;2023-04-09T03:13:25;87.75;;;37.70;;
41568;SDS011;27283;52.504;13.358;2023-04-09T03:15:58;94.60;;;38.03;;
41568;SDS011;27283;52.504;13.358;2023-04-09T03:18:31;93.78;;;38.85;;
41568;SDS011;27283;52.504;13.358;2023-04-09T03:21:04;86.20;;;37.05;;
41568;SDS011;27283;52.504;13.358;2023-04-09T03:23:41;89.22;;;38.25;;
41568;SDS011;27283;52.504;13.358;2023-04-09T03:26:17;89.82;;;37.90;;
41568;SDS011;27283;52.504;13.358;2023-04-09T03:28:49;89.90;;;36.55;;
41568;SDS011;27283;52.504;13.358;2023-04-09T03:31:21;91.72;;;36.92;;
41568;SDS011;27283;52.504;13.358;2023-04-09T03:33:54;89.88;;;37.45;;
41568;SDS011;27283;52.504;13.358;2023-04-09T03:36:26;90.35;;;38.05;;
41568;SDS011;27283;52.504;13.358;2023-04-09T03:38:59;94.60;;;39.05;;
41568;SDS011;27283;52.504;13.358;2023-04-09T03:41:34;103.18;;;40.65;;
41568;SDS011;27283;52.504;13.358;2023-04-09T03:44:06;102.57;;;41.22;;
41568;SDS011;27283;52.504;13.358;2023-04-09T03:46:38;97.13;;;40.15;;
41568;SDS011;27283;52.504;13.358;2023-04-09T03:49:11;101.55;;;42.25;;
41568;SDS011;27283;52.504;13.358;2023-04-09T03:51:43;100.43;;;41.90;;
41568;SDS011;27283;52.504;13.358;2023-04-09T03:54:15;102.68;;;41.20;;
41568;SDS011;27283;52.504;13.358;2023-04-09T03:56:50;107.75;;;42.55;;
41568;SDS011;27283;52.504;13.358;2023-04-09T03:59:22;107.57;;;41.40;;
41568;SDS011;27283;52.504;13.358;2023-04-09T04:01:54;117.63;;;44.13;;
41568;SDS011;27283;52.504;13.358;2023-04-09T04:04:27;112.20;;;43.95;;
41568;SDS011;27283;52.504;13.358;2023-04-09T04:06:59;113.80;;;43.90;;
41568;SDS011;27283;52.504;13.358;2023-04-09T04:09:35;107.85;;;42.97;;
41568;SDS011;27283;52.504;13.358;2023-04-09T04:12:10;111.38;;;42.75;;
41568;SDS011;27283;52.504;13.358;2023-04-09T04:14:43;121.28;;;43.78;;
41568;SDS011;27283;52.504;13.358;2023-04-09T04:17:15;136.07;;;46.80;;
41568;SDS011;27283;52.504;13.358;2023-04-09T04:19:47;141.25;;;47.85;;
41568;SDS011;27283;52.504;13.358;2023-04-09T04:22:20;163.52;;;51.25;;
41568;SDS011;27283;52.504;13.358;2023-04-09T04:24:53;184.07;;;54.30;;
41568;SDS011;27283;52.504;13.358;2023-04-09T04:27:31;209.40;;;56.55;;
41568;SDS011;27283;52.504;13.358;2023-04-09T04:30:04;221.85;;;58.58;;
41568;SDS011;27283;52.504;13.358;2023-04-09T04:32:37;207.68;;;55.92;;
41568;SDS011;27283;52.504;13.358;2023-04-09T04:35:10;255.90;;;62.05;;
41568;SDS011;27283;52.504;13.358;2023-04-09T04:37:41;321.17;;;65.50;;
41568;SDS011;27283;52.504;13.358;2023-04-09T04:40:14;278.52;;;64.88;;
41568;SDS011;27283;52.504;13.358;2023-04-09T04:42:49;286.75;;;61.95;;
41568;SDS011;27283;52.504;13.358;2023-04-09T04:45:21;307.83;;;65.30;;
41568;SDS011;27283;52.504;13.358;2023-04-09T04:47:55;604.95;;;87.88;;
41568;SDS011;27283;52.504;13.358;2023-04-09T04:50:32;424.15;;;74.63;;
41568;SDS011;27283;52.504;13.358;2023-04-09T04:53:04;359.17;;;71.25;;
41568;SDS011;27283;52.504;13.358;2023-04-09T04:55:37;317.33;;;66.13;;
41568;SDS011;27283;52.504;13.358;2023-04-09T04:58:12;383.98;;;72.55;;
41568;SDS011;27283;52.504;13.358;2023-04-09T05:00:45;309.27;;;67.60;;
41568;SDS011;27283;52.504;13.358;2023-04-09T05:03:17;338.35;;;70.95;;
41568;SDS011;27283;52.504;13.358;2023-04-09T05:05:52;429.08;;;77.70;;
41568;SDS011;27283;52.504;13.358;2023-04-09T05:08:24;319.75;;;66.05;;
41568;SDS011;27283;52.504;13.358;2023-04-09T05:10:57;605.60;;;87.85;;
41568;SDS011;27283;52.504;13.358;2023-04-09T05:13:32;420.88;;;76.30;;
41568;SDS011;27283;52.504;13.358;2023-04-09T05:16:05;374.55;;;73.25;;
41568;SDS011;27283;52.504;13.358;2023-04-09T05:18:37;287.45;;;65.15;;
41568;SDS011;27283;52.504;13.358;2023-04-09T05:21:09;294.67;;;64.03;;
41568;SDS011;27283;52.504;13.358;2023-04-09T05:23:42;493.02;;;78.53;;
41568;SDS011;27283;52.504;13.358;2023-04-09T05:26:15;267.42;;;59.75;;
41568;SDS011;27283;52.504;13.358;2023-04-09T05:28:50;225.80;;;56.80;;
41568;SDS011;27283;52.504;13.358;2023-04-09T05:31:23;232.40;;;53.78;;
41568;SDS011;27283;52.504;13.358;2023-04-09T05:33:55;188.02;;;51.33;;
41568;SDS011;27283;52.504;13.358;2023-04-09T05:36:28;180.07;;;49.67;;
41568;SDS011;27283;52.504;13.358;2023-04-09T05:39:01;166.63;;;48.65;;
41568;SDS011;27283;52.504;13.358;2023-04-09T05:41:33;171.68;;;48.72;;
41568;SDS011;27283;52.504;13.358;2023-04-09T05:44:09;163.73;;;47.10;;
41568;SDS011;27283;52.504;13.358;2023-04-09T05:46:42;159.20;;;48.55;;
41568;SDS011;27283;52.504;13.358;2023-04-09T05:49:14;148.52;;;46.15;;
41568;SDS011;27283;52.504;13.358;2023-04-09T05:51:48;136.02;;;44.15;;
41568;SDS011;27283;52.504;13.358;2023-04-09T05:54:20;147.23;;;46.13;;
41568;SDS011;27283;52.504;13.358;2023-04-09T05:56:53;149.05;;;48.08;;
41568;SDS011;27283;52.504;13.358;2023-04-09T05:59:29;155.35;;;49.22;;
41568;SDS011;27283;52.504;13.358;2023-04-09T06:02:01;155.63;;;48.72;;
41568;SDS011;27283;52.504;13.358;2023-04-09T06:04:34;160.00;;;48.35;;
41568;SDS011;27283;52.504;13.358;2023-04-09T06:07:07;171.27;;;50.22;;
41568;SDS011;27283;52.504;13.358;2023-04-09T06:09:39;143.27;;;47.17;;
41568;SDS011;27283;52.504;13.358;2023-04-09T06:12:13;142.45;;;47.00;;
41568;SDS011;27283;52.504;13.358;2023-04-09T06:14:49;136.95;;;45.33;;
41568;SDS011;27283;52.504;13.358;2023-04-09T06:17:22;135.90;;;46.35;;
41568;SDS011;27283;52.504;13.358;2023-04-09T06:19:54;152.23;;;48.00;;
41568;SDS011;27283;52.504;13.358;2023-04-09T06:22:27;148.30;;;46.95;;
41568;SDS011;27283;52.504;13.358;2023-04-09T06:25:00;129.15;;;45.15;;
41568;SDS011;27283;52.504;13.358;2023-04-09T06:27:33;134.20;;;45.28;;
41568;SDS011;27283;52.504;13.358;2023-04-09T06:30:09;143.15;;;47.75;;
41568;SDS011;27283;52.504;13.358;2023-04-09T06:32:42;141.55;;;48.42;;
41568;SDS011;27283;52.504;13.358;2023-04-09T06:35:22;159.68;;;50.67;;
41568;SDS011;27283;52.504;13.358;2023-04-09T06:37:55;141.02;;;47.38;;
41568;SDS011;27283;52.504;13.358;2023-04-09T06:40:27;136.57;;;48.17;;
41568;SDS011;27283;52.504;13.358;2023-04-09T06:43:01;133.57;;;47.47;;
41568;SDS011;27283;52.504;13.358;2023-04-09T06:45:36;135.30;;;47.30;;
41568;SDS011;27283;52.504;13.358;2023-04-09T06:48:09;120.50;;;44.35;;
41568;SDS011;27283;52.504;13.358;2023-04-09T06:50:43;103.13;;;41.08;;
41568;SDS011;27283;52.504;13.358;2023-04-09T06:53:15;101.45;;;41.20;;
41568;SDS011;27283;52.504;13.358;2023-04-09T06:55:48;101.00;;;39.63;;
41568;SDS011;27283;52.504;13.358;2023-04-09T06:58:23;97.15;;;39.20;;
41568;SDS011;27283;52.504;13.358;2023-04-09T07:00:58;89.20;;;37.75;;
41568;SDS011;27283;52.504;13.358;2023-04-09T07:03:31;86.80;;;37.75;;
41568;SDS011;27283;52.504;13.358;2023-04-09T07:06:04;79.70;;;34.70;;
41568;SDS011;27283;52.504;13.358;2023-04-09T07:08:37;77.35;;;34.70;;
41568;SDS011;27283;52.504;13.358;2023-04-09T07:11:09;79.72;;;35.90;;
41568;SDS011;27283;52.504;13.358;2023-04-09T07:13:45;81.10;;;35.85;;
41568;SDS011;27283;52.504;13.358;2023-04-09T07:16:19;85.68;;;37.28;;
41568;SDS011;27283;52.504;13.358;2023-04-09T07:18:52;88.63;;;36.55;;
41568;SDS011;27283;52.504;13.358;2023-04-09T07:21:24;82.22;;;35.03;;
41568;SDS011;27283;52.504;13.358;2023-04-09T07:23:57;76.68;;;34.47;;
41568;SDS011;27283;52.504;13.358;2023-04-09T07:26:30;79.55;;;34.45;;
41568;SDS011;27283;52.504;13.358;2023-04-09T07:29:03;75.50;;;34.58;;
41568;SDS011;27283;52.504;13.358;2023-04-09T07:31:38;78.88;;;35.03;;
41568;SDS011;27283;52.504;13.358;2023-04-09T07:34:12;81.07;;;34.92;;
41568;SDS011;27283;52.504;13.358;2023-04-09T07:36:45;76.82;;;33.55;;
41568;SDS011;27283;52.504;13.358;2023-04-09T07:39:18;72.68;;;32.45;;
41568;SDS011;27283;52.504;13.358;2023-04-09T07:41:51;87.25;;;37.22;;
41568;SDS011;27283;52.504;13.358;2023-04-09T07:44:25;88.88;;;38.20;;
41568;SDS011;27283;52.504;13.358;2023-04-09T07:47:00;87.80;;;38.17;;
41568;SDS011;27283;52.504;13.358;2023-04-09T07:49:34;91.95;;;38.53;;
41568;SDS011;27283;52.504;13.358;2023-04-09T07:52:06;87.05;;;37.50;;
41568;SDS011;27283;52.504;13.358;2023-04-09T07:54:39;93.00;;;40.38;;
41568;SDS011;27283;52.504;13.358;2023-04-09T07:57:12;79.40;;;35.75;;
41568;SDS011;27283;52.504;13.358;2023-04-09T07:59:45;77.72;;;34.63;;
41568;SDS011;27283;52.504;13.358;2023-04-09T08:02:20;82.43;;;35.60;;
41568;SDS011;27283;52.504;13.358;2023-04-09T08:04:52;82.70;;;36.25;;
41568;SDS011;27283;52.504;13.358;2023-04-09T08:07:25;78.85;;;35.22;;
41568;SDS011;27283;52.504;13.358;2023-04-09T08:09:58;76.35;;;34.00;;
41568;SDS011;27283;52.504;13.358;2023-04-09T08:12:30;77.80;;;35.03;;
41568;SDS011;27283;52.504;13.358;2023-04-09T08:15:03;75.07;;;33.78;;
41568;SDS011;27283;52.504;13.358;2023-04-09T08:17:38;80.90;;;34.60;;
41568;SDS011;27283;52.504;13.358;2023-04-09T08:20:11;80.22;;;35.95;;
41568;SDS011;27283;52.504;13.358;2023-04-09T08:22:44;80.97;;;36.85;;
41568;SDS011;27283;52.504;13.358;2023-04-09T08:25:16;85.13;;;35.42;;
41568;SDS011;27283;52.504;13.358;2023-04-09T08:27:49;72.22;;;34.10;;
41568;SDS011;27283;52.504;13.358;2023-04-09T08:30:22;77.25;;;35.20;;
41568;SDS011;27283;52.504;13.358;2023-04-09T08:32:59;77.13;;;35.35;;
41568;SDS011;27283;52.504;13.358;2023-04-09T08:35:32;81.93;;;34.88;;
41568;SDS011;27283;52.504;13.358;2023-04-09T08:38:06;84.93;;;36.83;;
41568;SDS011;27283;52.504;13.358;2023-04-09T08:40:39;82.32;;;37.20;;
41568;SDS011;27283;52.504;13.358;2023-04-09T08:43:13;82.03;;;36.45;;
41568;SDS011;27283;52.504;13.358;2023-04-09T08:45:47;75.85;;;34.35;;
41568;SDS011;27283;52.504;13.358;2023-04-09T08:48:22;76.07;;;36.28;;
41568;SDS011;27283;52.504;13.358;2023-04-09T08:50:56;84.93;;;38.47;;
41568;SDS011;27283;52.504;13.358;2023-04-09T08:53:29;78.00;;;35.17;;
41568;SDS011;27283;52.504;13.358;2023-04-09T08:56:01;74.68;;;34.55;;
41568;SDS011;27283;52.504;13.358;2023-04-09T08:58:34;79.80;;;35.97;;
41568;SDS011;27283;52.504;13.358;2023-04-09T09:01:17;73.32;;;34.70;;
41568;SDS011;27283;52.504;13.358;2023-04-09T09:03:55;73.78;;;34.10;;
41568;SDS011;27283;52.504;13.358;2023-04-09T09:06:30;78.28;;;35.88;;
41568;SDS011;27283;52.504;13.358;2023-04-09T09:09:06;78.40;;;35.38;;
41568;SDS011;27283;52.504;13.358;2023-04-09T09:11:41;71.53;;;33.17;;
41568;SDS011;27283;52.504;13.358;2023-04-09T09:14:15;66.30;;;32.20;;
41568;SDS011;27283;52.504;13.358;2023-04-09T09:17:02;71.75;;;35.70;;
41568;SDS011;27283;52.504;13.358;2023-04-09T09:19:38;75.30;;;35.65;;
41568;SDS011;27283;52.504;13.358;2023-04-09T09:22:11;68.93;;;33.30;;
41568;SDS011;27283;52.504;13.358;2023-04-09T09:24:46;66.90;;;33.75;;
41568;SDS011;27283;52.504;13.358;2023-04-09T09:30:19;66.50;;;32.92;;
41568;SDS011;27283;52.504;13.358;2023-04-09T09:33:03;65.38;;;34.40;;
41568;SDS011;27283;52.504;13.358;2023-04-09T09:38:26;60.45;;;31.35;;
41568;SDS011;27283;52.504;13.358;2023-04-09T09:41:01;59.35;;;32.25;;
41568;SDS011;27283;52.504;13.358;2023-04-09T09:43:47;60.40;;;32.83;;
41568;SDS011;27283;52.504;13.358;2023-04-09T09:46:20;57.22;;;30.83;;
41568;SDS011;27283;52.504;13.358;2023-04-09T09:48:54;56.58;;;30.90;;
41568;SDS011;27283;52.504;13.358;2023-04-09T09:51:30;59.33;;;32.47;;
41568;SDS011;27283;52.504;13.358;2023-04-09T09:54:05;58.85;;;30.65;;
41568;SDS011;27283;52.504;13.358;2023-04-09T09:56:40;54.38;;;29.75;;
41568;SDS011;27283;52.504;13.358;2023-04-09T09:59:15;53.13;;;29.25;;
41568;SDS011;27283;52.504;13.358;2023-04-09T10:01:54;53.70;;;29.55;;
41568;SDS011;27283;52.504;13.358;2023-04-09T10:04:32;54.65;;;29.90;;
41568;SDS011;27283;52.504;13.358;2023-04-09T10:07:08;53.42;;;28.98;;
41568;SDS011;27283;52.504;13.358;2023-04-09T10:09:44;57.83;;;31.38;;
41568;SDS011;27283;52.504;13.358;2023-04-09T10:12:19;52.10;;;28.50;;
41568;SDS011;27283;52.504;13.358;2023-04-09T10:14:54;51.13;;;28.25;;
41568;SDS011;27283;52.504;13.358;2023-04-09T10:17:48;52.47;;;29.92;;
41568;SDS011;27283;52.504;13.358;2023-04-09T10:20:22;51.00;;;28.52;;
41568;SDS011;27283;52.504;13.358;2023-04-09T10:23:01;53.35;;;29.00;;
41568;SDS011;27283;52.504;13.358;2023-04-09T10:25:41;50.13;;;27.60;;
41568;SDS011;27283;52.504;13.358;2023-04-09T10:28:14;52.88;;;28.90;;
41568;SDS011;27283;52.504;13.358;2023-04-09T10:30:48;55.90;;;29.55;;
41568;SDS011;27283;52.504;13.358;2023-04-09T10:33:21;53.25;;;29.25;;
41568;SDS011;27283;52.504;13.358;2023-04-09T10:35:58;57.50;;;29.17;;
41568;SDS011;27283;52.504;13.358;2023-04-09T10:38:35;57.28;;;29.20;;
41568;SDS011;27283;52.504;13.358;2023-04-09T10:41:12;54.22;;;28.52;;
41568;SDS011;27283;52.504;13.358;2023-04-09T10:43:47;58.92;;;28.13;;
41568;SDS011;27283;52.504;13.358;2023-04-09T10:46:29;55.47;;;28.33;;
41568;SDS011;27283;52.504;13.358;2023-04-09T10:49:07;54.60;;;29.42;;
41568;SDS011;27283;52.504;13.358;2023-04-09T10:51:47;53.00;;;28.20;;
41568;SDS011;27283;52.504;13.358;2023-04-09T10:54:38;50.70;;;27.50;;
41568;SDS011;27283;52.504;13.358;2023-04-09T10:57:15;57.55;;;29.88;;
41568;SDS011;27283;52.504;13.358;2023-04-09T10:59:50;50.67;;;27.33;;
41568;SDS011;27283;52.504;13.358;2023-04-09T11:05:29;53.20;;;27.75;;
41568;SDS011;27283;52.504;13.358;2023-04-09T11:10:41;50.00;;;27.73;;
41568;SDS011;27283;52.504;13.358;2023-04-09T11:13:19;53.45;;;28.05;;
41568;SDS011;27283;52.504;13.358;2023-04-09T11:15:50;49.47;;;27.30;;
41568;SDS011;27283;52.504;13.358;2023-04-09T11:18:23;55.88;;;28.00;;
41568;SDS011;27283;52.504;13.358;2023-04-09T11:20:57;49.15;;;25.30;;
41568;SDS011;27283;52.504;13.358;2023-04-09T11:23:31;47.63;;;26.38;;
41568;SDS011;27283;52.504;13.358;2023-04-09T11:26:08;49.85;;;25.95;;
41568;SDS011;27283;52.504;13.358;2023-04-09T11:28:41;49.30;;;26.05;;
41568;SDS011;27283;52.504;13.358;2023-04-09T11:31:14;46.28;;;25.05;;
41568;SDS011;27283;52.504;13.358;2023-04-09T11:33:47;49.00;;;25.50;;
41568;SDS011;27283;52.504;13.358;2023-04-09T11:36:40;47.03;;;25.00;;
41568;SDS011;27283;52.504;13.358;2023-04-09T11:39:37;48.03;;;25.10;;
41568;SDS011;27283;52.504;13.358;2023-04-09T11:42:18;47.67;;;24.77;;
41568;SDS011;27283;52.504;13.358;2023-04-09T11:44:53;50.03;;;25.83;;
41568;SDS011;27283;52.504;13.358;2023-04-09T11:47:26;46.58;;;25.05;;
41568;SDS011;27283;52.504;13.358;2023-04-09T11:49:59;43.60;;;23.52;;
41568;SDS011;27283;52.504;13.358;2023-04-09T11:52:32;43.22;;;23.50;;
41568;SDS011;27283;52.504;13.358;2023-04-09T11:55:07;45.97;;;23.95;;
41568;SDS011;27283;52.504;13.358;2023-04-09T11:57:44;47.03;;;24.60;;
41568;SDS011;27283;52.504;13.358;2023-04-09T12:00:19;43.53;;;24.20;;
41568;SDS011;27283;52.504;13.358;2023-04-09T12:02:57;41.97;;;22.75;;
41568;SDS011;27283;52.504;13.358;2023-04-09T12:05:33;44.03;;;22.55;;
41568;SDS011;27283;52.504;13.358;2023-04-09T12:08:09;48.08;;;23.27;;
41568;SDS011;27283;52.504;13.358;2023-04-09T12:10:46;41.47;;;22.08;;
41568;SDS011;27283;52.504;13.358;2023-04-09T12:13:30;46.70;;;23.17;;
41568;SDS011;27283;52.504;13.358;2023-04-09T12:16:32;42.70;;;21.70;;
41568;SDS011;27283;52.504;13.358;2023-04-09T12:19:25;42.40;;;21.70;;
41568;SDS011;27283;52.504;13.358;2023-04-09T12:21:57;43.15;;;22.08;;
41568;SDS011;27283;52.504;13.358;2023-04-09T12:24:29;43.83;;;21.17;;
41568;SDS011;27283;52.504;13.358;2023-04-09T12:27:02;46.30;;;22.58;;
41568;SDS011;27283;52.504;13.358;2023-04-09T12:29:36;40.38;;;21.60;;
41568;SDS011;27283;52.504;13.358;2023-04-09T12:32:09;44.10;;;21.95;;
41568;SDS011;27283;52.504;13.358;2023-04-09T12:34:41;40.50;;;21.10;;
41568;SDS011;27283;52.504;13.358;2023-04-09T12:37:14;40.83;;;20.75;;
41568;SDS011;27283;52.504;13.358;2023-04-09T12:39:46;41.17;;;21.25;;
41568;SDS011;27283;52.504;13.358;2023-04-09T12:42:19;41.78;;;21.75;;
41568;SDS011;27283;52.504;13.358;2023-04-09T12:44:53;43.50;;;21.85;;
41568;SDS011;27283;52.504;13.358;2023-04-09T12:47:26;53.33;;;23.67;;
41568;SDS011;27283;52.504;13.358;2023-04-09T12:49:58;45.05;;;21.77;;
41568;SDS011;27283;52.504;13.358;2023-04-09T12:52:30;45.28;;;21.20;;
41568;SDS011;27283;52.504;13.358;2023-04-09T12:55:02;43.13;;;20.00;;
41568;SDS011;27283;52.504;13.358;2023-04-09T12:57:36;47.50;;;22.35;;
41568;SDS011;27283;52.504;13.358;2023-04-09T13:00:12;42.97;;;20.90;;
41568;SDS011;27283;52.504;13.358;2023-04-09T13:02:45;45.95;;;21.45;;
41568;SDS011;27283;52.504;13.358;2023-04-09T13:05:19;42.90;;;21.50;;
41568;SDS011;27283;52.504;13.358;2023-04-09T13:07:52;41.85;;;20.88;;
41568;SDS011;27283;52.504;13.358;2023-04-09T13:10:24;44.65;;;21.95;;
41568;SDS011;27283;52.504;13.358;2023-04-09T13:12:57;44.45;;;21.23;;
41568;SDS011;27283;52.504;13.358;2023-04-09T13:15:32;44.63;;;21.15;;
41568;SDS011;27283;52.504;13.358;2023-04-09T13:18:05;43.00;;;21.50;;
41568;SDS011;27283;52.504;13.358;2023-04-09T13:20:37;43.17;;;20.02;;
41568;SDS011;27283;52.504;13.358;2023-04-09T13:23:10;45.65;;;22.50;;
41568;SDS011;27283;52.504;13.358;2023-04-09T13:25:46;41.72;;;20.60;;
41568;SDS011;27283;52.504;13.358;2023-04-09T13:28:19;39.67;;;20.23;;
41568;SDS011;27283;52.504;13.358;2023-04-09T13:30:54;40.90;;;19.48;;
41568;SDS011;27283;52.504;13.358;2023-04-09T13:33:28;39.88;;;21.05;;
41568;SDS011;27283;52.504;13.358;2023-04-09T13:36:00;39.60;;;20.45;;
41568;SDS011;27283;52.504;13.358;2023-04-09T13:38:33;39.88;;;20.65;;
41568;SDS011;27283;52.504;13.358;2023-04-09T13:41:05;38.45;;;20.73;;
41568;SDS011;27283;52.504;13.358;2023-04-09T13:43:38;41.03;;;19.90;;
41568;SDS011;27283;52.504;13.358;2023-04-09T13:46:14;37.83;;;19.85;;
41568;SDS011;27283;52.504;13.358;2023-04-09T13:48:46;42.05;;;21.30;;
41568;SDS011;27283;52.504;13.358;2023-04-09T13:51:20;40.03;;;20.38;;
41568;SDS011;27283;52.504;13.358;2023-04-09T13:53:52;39.97;;;19.63;;
41568;SDS011;27283;52.504;13.358;2023-04-09T13:56:25;39.72;;;19.83;;
41568;SDS011;27283;52.504;13.358;2023-04-09T13:58:58;38.60;;;19.98;;
41568;SDS011;27283;52.504;13.358;2023-04-09T14:01:33;40.92;;;19.02;;
41568;SDS011;27283;52.504;13.358;2023-04-09T14:04:05;36.75;;;18.45;;
41568;SDS011;27283;52.504;13.358;2023-04-09T14:06:38;40.30;;;20.55;;
41568;SDS011;27283;52.504;13.358;2023-04-09T14:09:12;37.65;;;19.15;;
41568;SDS011;27283;52.504;13.358;2023-04-09T14:11:45;38.80;;;19.45;;
41568;SDS011;27283;52.504;13.358;2023-04-09T14:14:18;35.63;;;19.23;;
41568;SDS011;27283;52.504;13.358;2023-04-09T14:16:53;37.42;;;19.05;;
41568;SDS011;27283;52.504;13.358;2023-04-09T14:19:26;36.88;;;18.38;;
41568;SDS011;27283;52.504;13.358;2023-04-09T14:21:58;37.42;;;19.10;;
41568;SDS011;27283;52.504;13.358;2023-04-09T14:24:31;36.30;;;18.33;;
41568;SDS011;27283;52.504;13.358;2023-04-09T14:27:07;34.45;;;17.98;;
41568;SDS011;27283;52.504;13.358;2023-04-09T14:29:40;34.97;;;18.38;;
41568;SDS011;27283;52.504;13.358;2023-04-09T14:32:16;36.60;;;18.42;;
41568;SDS011;27283;52.504;13.358;2023-04-09T14:34:48;34.00;;;16.80;;
41568;SDS011;27283;52.504;13.358;2023-04-09T14:37:21;33.65;;;17.38;;
41568;SDS011;27283;52.504;13.358;2023-04-09T14:39:54;38.45;;;18.88;;
41568;SDS011;27283;52.504;13.358;2023-04-09T14:42:26;41.38;;;20.73;;
41568;SDS011;27283;52.504;13.358;2023-04-09T14:44:59;39.75;;;20.40;;
41568;SDS011;27283;52.504;13.358;2023-04-09T14:47:34;34.72;;;18.35;;
41568;SDS011;27283;52.504;13.358;2023-04-09T14:50:07;35.85;;;17.83;;
41568;SDS011;27283;52.504;13.358;2023-04-09T14:52:40;36.20;;;19.00;;
41568;SDS011;27283;52.504;13.358;2023-04-09T14:55:13;38.15;;;19.70;;
41568;SDS011;27283;52.504;13.358;2023-04-09T14:57:46;35.88;;;18.73;;
41568;SDS011;27283;52.504;13.358;2023-04-09T15:00:19;38.38;;;19.67;;
41568;SDS011;27283;52.504;13.358;2023-04-09T15:02:54;42.13;;;20.55;;
41568;SDS011;27283;52.504;13.358;2023-04-09T15:05:27;43.90;;;19.65;;
41568;SDS011;27283;52.504;13.358;2023-04-09T15:08:00;40.60;;;19.65;;
41568;SDS011;27283;52.504;13.358;2023-04-09T15:10:34;35.97;;;17.85;;
41568;SDS011;27283;52.504;13.358;2023-04-09T15:13:07;36.58;;;19.27;;
41568;SDS011;27283;52.504;13.358;2023-04-09T15:15:39;37.90;;;18.90;;
41568;SDS011;27283;52.504;13.358;2023-04-09T15:18:15;38.78;;;19.23;;
41568;SDS011;27283;52.504;13.358;2023-04-09T15:20:49;41.63;;;20.35;;
41568;SDS011;27283;52.504;13.358;2023-04-09T15:23:22;40.35;;;20.75;;
41568;SDS011;27283;52.504;13.358;2023-04-09T15:25:54;39.83;;;20.92;;
41568;SDS011;27283;52.504;13.358;2023-04-09T15:28:26;37.95;;;20.10;;
41568;SDS011;27283;52.504;13.358;2023-04-09T15:30:59;38.47;;;20.38;;
41568;SDS011;27283;52.504;13.358;2023-04-09T15:33:34;38.58;;;20.75;;
41568;SDS011;27283;52.504;13.358;2023-04-09T15:36:07;39.97;;;19.85;;
41568;SDS011;27283;52.504;13.358;2023-04-09T15:38:40;39.55;;;20.55;;
41568;SDS011;27283;52.504;13.358;2023-04-09T15:41:13;38.70;;;20.58;;
41568;SDS011;27283;52.504;13.358;2023-04-09T15:43:46;47.22;;;22.05;;